createdAt,value
2019-01-16T00:00:54.202Z,-3.59
2019-01-16T00:02:02.258Z,-3.63
2019-01-16T00:03:10.267Z,-3.57
2019-01-16T00:04:18.353Z,-3.57
2019-01-16T00:05:26.398Z,-3.62
2019-01-16T00:06:34.458Z,-3.63
2019-01-16T00:07:42.499Z,-3.69
2019-01-16T00:08:50.566Z,-3.66
2019-01-16T00:09:58.612Z,-3.60
2019-01-16T00:11:06.672Z,-3.60
2019-01-16T00:12:14.722Z,-3.63
2019-01-16T00:13:22.778Z,-3.64
2019-01-16T00:14:30.834Z,-3.60
2019-01-16T00:15:38.888Z,-3.75
2019-01-16T00:16:46.923Z,-3.79
2019-01-16T00:17:54.982Z,-3.76
2019-01-16T00:19:03.023Z,-3.67
2019-01-16T00:20:11.093Z,-3.81
2019-01-16T00:21:19.130Z,-3.78
2019-01-16T00:22:27.236Z,-3.79
2019-01-16T00:23:35.242Z,-3.83
2019-01-16T00:24:43.304Z,-3.64
2019-01-16T00:25:51.343Z,-3.79
2019-01-16T00:26:59.414Z,-3.81
2019-01-16T00:28:07.467Z,-3.78
2019-01-16T00:29:15.502Z,-3.75
2019-01-16T00:30:23.572Z,-3.79
2019-01-16T00:31:31.608Z,-3.64
2019-01-16T00:32:39.660Z,-3.81
2019-01-16T00:33:47.735Z,-3.76
2019-01-16T00:34:55.779Z,-3.81
2019-01-16T00:36:03.824Z,-3.81
2019-01-16T00:37:11.879Z,-3.82
2019-01-16T00:38:19.954Z,-3.81
2019-01-16T00:39:27.997Z,-3.83
2019-01-16T00:40:36.041Z,-3.82
2019-01-16T00:41:44.105Z,-3.78
2019-01-16T00:42:52.135Z,-3.81
2019-01-16T00:44:00.197Z,-3.78
2019-01-16T00:45:08.238Z,-3.81
2019-01-16T00:46:16.286Z,-3.81
2019-01-16T00:47:24.372Z,-3.72
2019-01-16T00:48:32.403Z,-3.75
2019-01-16T00:49:40.450Z,-3.79
2019-01-16T00:50:48.520Z,-3.83
2019-01-16T00:51:56.557Z,-3.82
2019-01-16T00:53:04.625Z,-3.94
2019-01-16T00:54:12.659Z,-3.81
2019-01-16T00:55:20.715Z,-3.88
2019-01-16T00:56:28.762Z,-3.88
2019-01-16T00:57:36.840Z,-3.85
2019-01-16T00:58:44.884Z,-3.88
2019-01-16T00:59:52.946Z,-3.97
2019-01-16T01:01:01.567Z,-3.96
2019-01-16T01:02:09.030Z,-3.97
2019-01-16T01:03:17.097Z,-3.94
2019-01-16T01:04:25.147Z,-4.04
2019-01-16T01:05:33.186Z,-3.94
2019-01-16T01:06:41.236Z,-4.00
2019-01-16T01:07:49.300Z,-4.07
2019-01-16T01:08:57.342Z,-3.91
2019-01-16T01:10:05.430Z,-3.96
2019-01-16T01:11:13.474Z,-4.06
2019-01-16T01:12:21.506Z,-4.00
2019-01-16T01:13:29.577Z,-4.01
2019-01-16T01:14:37.632Z,-4.03
2019-01-16T01:15:45.685Z,-3.96
2019-01-16T01:16:53.728Z,-4.01
2019-01-16T01:18:01.768Z,-4.06
2019-01-16T01:19:09.830Z,-4.03
2019-01-16T01:20:17.889Z,-4.04
2019-01-16T01:21:25.936Z,-4.14
2019-01-16T01:22:33.992Z,-4.17
2019-01-16T01:23:42.049Z,-4.17
2019-01-16T01:24:50.095Z,-4.21
2019-01-16T01:25:58.134Z,-4.15
2019-01-16T01:28:20.107Z,-4.22
2019-01-16T01:29:28.174Z,-4.24
2019-01-16T01:30:36.226Z,-4.22
2019-01-16T01:31:44.258Z,-4.24
2019-01-16T01:32:52.316Z,-4.25
2019-01-16T01:34:00.398Z,-4.33
2019-01-16T01:35:08.413Z,-4.36
2019-01-16T01:36:16.479Z,-4.35
2019-01-16T01:37:24.517Z,-4.38
2019-01-16T01:38:32.570Z,-4.50
2019-01-16T01:39:40.616Z,-4.50
2019-01-16T01:40:48.684Z,-4.54
2019-01-16T01:41:56.737Z,-4.56
2019-01-16T01:44:22.542Z,-4.57
2019-01-16T01:45:30.614Z,-4.56
2019-01-16T01:46:40.266Z,-4.65
2019-01-16T01:49:19.418Z,-4.69
2019-01-16T01:50:27.486Z,-4.68
2019-01-16T01:51:35.528Z,-4.71
2019-01-16T01:52:45.573Z,-4.58
2019-01-16T01:53:55.227Z,-4.58
2019-01-16T01:55:01.265Z,-4.61
2019-01-16T01:56:09.351Z,-4.65
2019-01-16T01:57:17.414Z,-4.58
2019-01-16T01:58:25.437Z,-4.68
2019-01-16T01:59:33.468Z,-4.74
2019-01-16T02:00:41.538Z,-4.75
2019-01-16T02:01:49.602Z,-4.77
2019-01-16T02:02:57.631Z,-4.78
2019-01-16T02:04:05.704Z,-4.83
2019-01-16T02:05:13.734Z,-4.78
2019-01-16T02:06:21.794Z,-4.75
2019-01-16T02:07:29.859Z,-4.86
2019-01-16T02:08:37.902Z,-4.77
2019-01-16T02:09:45.943Z,-4.87
2019-01-16T02:10:54.002Z,-4.86
2019-01-16T02:12:02.037Z,-4.87
2019-01-16T02:13:10.111Z,-4.77
2019-01-16T02:14:18.164Z,-4.83
2019-01-16T02:15:26.207Z,-4.83
2019-01-16T02:16:34.281Z,-4.86
2019-01-16T02:17:42.300Z,-4.90
2019-01-16T02:18:50.336Z,-4.79
2019-01-16T02:19:58.405Z,-4.85
2019-01-16T02:21:06.444Z,-4.71
2019-01-16T02:22:14.509Z,-4.68
2019-01-16T02:23:22.524Z,-4.85
2019-01-16T02:24:30.584Z,-4.78
2019-01-16T02:25:38.628Z,-4.86
2019-01-16T02:26:46.689Z,-4.79
2019-01-16T02:27:54.744Z,-4.83
2019-01-16T02:29:02.772Z,-4.86
2019-01-16T02:30:10.820Z,-4.86
2019-01-16T02:31:18.898Z,-4.92
2019-01-16T02:32:26.943Z,-4.87
2019-01-16T02:33:35.015Z,-5.03
2019-01-16T02:34:43.050Z,-4.92
2019-01-16T02:35:51.125Z,-5.03
2019-01-16T02:36:59.156Z,-5.00
2019-01-16T02:38:07.193Z,-4.92
2019-01-16T02:39:15.254Z,-4.93
2019-01-16T02:40:23.305Z,-4.92
2019-01-16T02:41:31.369Z,-4.99
2019-01-16T02:42:39.396Z,-4.93
2019-01-16T02:43:47.427Z,-4.93
2019-01-16T02:44:55.489Z,-5.03
2019-01-16T02:46:03.536Z,-4.97
2019-01-16T02:47:11.584Z,-4.97
2019-01-16T02:48:19.702Z,-4.92
2019-01-16T02:49:27.711Z,-4.92
2019-01-16T02:50:35.782Z,-5.04
2019-01-16T02:51:43.799Z,-4.95
2019-01-16T02:52:51.835Z,-5.00
2019-01-16T02:53:59.908Z,-4.97
2019-01-16T02:55:08.019Z,-4.96
2019-01-16T02:56:16.009Z,-4.97
2019-01-16T02:57:24.104Z,-5.00
2019-01-16T02:58:32.105Z,-4.95
2019-01-16T02:59:40.132Z,-4.99
2019-01-16T03:00:48.206Z,-4.90
2019-01-16T03:01:56.243Z,-4.78
2019-01-16T03:03:04.352Z,-4.90
2019-01-16T03:04:12.348Z,-4.89
2019-01-16T03:05:23.831Z,-4.81
2019-01-16T03:06:33.509Z,-4.86
2019-01-16T03:07:41.569Z,-4.85
2019-01-16T03:08:49.575Z,-4.83
2019-01-16T03:09:57.644Z,-4.75
2019-01-16T03:11:05.726Z,-4.71
2019-01-16T03:12:13.752Z,-4.63
2019-01-16T03:13:21.788Z,-4.61
2019-01-16T03:14:29.842Z,-4.74
2019-01-16T03:15:37.928Z,-4.54
2019-01-16T03:16:45.948Z,-4.63
2019-01-16T03:17:54.077Z,-4.63
2019-01-16T03:19:04.622Z,-4.65
2019-01-16T03:20:10.117Z,-4.74
2019-01-16T03:21:18.157Z,-4.77
2019-01-16T03:22:26.204Z,-4.71
2019-01-16T03:23:34.251Z,-4.69
2019-01-16T03:24:42.310Z,-4.74
2019-01-16T03:25:50.379Z,-4.79
2019-01-16T03:26:58.409Z,-4.75
2019-01-16T03:28:06.447Z,-4.72
2019-01-16T03:29:14.479Z,-4.83
2019-01-16T03:30:22.581Z,-4.78
2019-01-16T03:31:30.576Z,-4.90
2019-01-16T03:32:38.647Z,-4.86
2019-01-16T03:33:46.711Z,-4.92
2019-01-16T03:34:54.738Z,-4.85
2019-01-16T03:36:02.788Z,-4.90
2019-01-16T03:37:10.864Z,-4.89
2019-01-16T03:38:18.918Z,-4.92
2019-01-16T03:39:26.955Z,-4.89
2019-01-16T03:40:35.009Z,-4.90
2019-01-16T03:41:43.033Z,-4.83
2019-01-16T03:42:51.079Z,-4.83
2019-01-16T03:43:59.167Z,-4.85
2019-01-16T03:45:07.191Z,-4.89
2019-01-16T03:46:15.255Z,-4.85
2019-01-16T03:47:23.305Z,-4.77
2019-01-16T03:48:31.339Z,-4.90
2019-01-16T03:49:39.415Z,-4.92
2019-01-16T03:50:47.448Z,-4.86
2019-01-16T03:51:55.501Z,-4.83
2019-01-16T03:53:03.539Z,-4.86
2019-01-16T03:54:11.593Z,-4.89
2019-01-16T03:55:19.667Z,-4.78
2019-01-16T03:56:27.690Z,-4.81
2019-01-16T03:57:35.743Z,-4.81
2019-01-16T03:58:43.824Z,-4.85
2019-01-16T03:59:51.840Z,-4.68
2019-01-16T04:00:59.904Z,-4.87
2019-01-16T04:02:07.962Z,-4.83
2019-01-16T04:03:16.019Z,-4.89
2019-01-16T04:04:24.038Z,-4.86
2019-01-16T04:05:32.113Z,-4.85
2019-01-16T04:06:40.127Z,-4.86
2019-01-16T04:07:48.222Z,-4.92
2019-01-16T04:08:56.263Z,-4.81
2019-01-16T04:10:04.273Z,-4.78
2019-01-16T04:11:12.343Z,-4.86
2019-01-16T04:12:20.400Z,-4.74
2019-01-16T04:13:28.456Z,-4.83
2019-01-16T04:14:36.497Z,-4.83
2019-01-16T04:15:44.539Z,-4.72
2019-01-16T04:16:52.600Z,-4.79
2019-01-16T04:18:00.662Z,-4.78
2019-01-16T04:19:08.758Z,-4.87
2019-01-16T04:20:16.758Z,-4.79
2019-01-16T04:21:24.798Z,-4.77
2019-01-16T04:22:32.848Z,-4.74
2019-01-16T04:23:40.887Z,-4.77
2019-01-16T04:24:48.951Z,-4.77
2019-01-16T04:25:56.998Z,-4.78
2019-01-16T04:27:05.045Z,-4.79
2019-01-16T04:28:13.100Z,-4.69
2019-01-16T04:29:21.130Z,-4.77
2019-01-16T04:30:29.200Z,-4.75
2019-01-16T04:31:37.253Z,-4.74
2019-01-16T04:32:45.321Z,-4.81
2019-01-16T04:33:53.353Z,-4.77
2019-01-16T04:35:01.405Z,-4.86
2019-01-16T04:36:09.474Z,-4.79
2019-01-16T04:37:17.505Z,-4.78
2019-01-16T04:38:25.552Z,-4.77
2019-01-16T04:39:33.601Z,-4.77
2019-01-16T04:40:41.643Z,-4.67
2019-01-16T04:41:49.710Z,-4.69
2019-01-16T04:42:57.778Z,-4.81
2019-01-16T04:44:05.791Z,-4.83
2019-01-16T04:45:13.880Z,-4.79
2019-01-16T04:46:21.911Z,-4.79
2019-01-16T04:47:29.943Z,-4.79
2019-01-16T04:48:38.002Z,-4.85
2019-01-16T04:49:46.044Z,-4.83
2019-01-16T04:50:54.090Z,-4.85
2019-01-16T04:52:02.158Z,-4.90
2019-01-16T04:53:10.229Z,-4.89
2019-01-16T04:54:18.263Z,-4.83
2019-01-16T04:55:26.305Z,-4.92
2019-01-16T04:56:34.359Z,-4.89
2019-01-16T04:57:42.413Z,-4.96
2019-01-16T04:58:50.453Z,-4.97
2019-01-16T04:59:58.509Z,-4.92
2019-01-16T05:01:06.555Z,-4.95
2019-01-16T05:02:14.610Z,-4.99
2019-01-16T05:03:22.642Z,-4.92
2019-01-16T05:04:30.683Z,-4.93
2019-01-16T05:05:38.755Z,-4.95
2019-01-16T05:06:46.799Z,-4.96
2019-01-16T05:07:55.098Z,-4.95
2019-01-16T05:09:02.887Z,-4.92
2019-01-16T05:10:10.916Z,-4.92
2019-01-16T05:11:19.014Z,-4.96
2019-01-16T05:12:27.054Z,-4.92
2019-01-16T05:13:35.106Z,-4.92
2019-01-16T05:14:43.187Z,-4.83
2019-01-16T05:15:51.193Z,-4.87
2019-01-16T05:16:59.224Z,-4.96
2019-01-16T05:18:07.289Z,-5.00
2019-01-16T05:19:15.338Z,-4.97
2019-01-16T05:20:23.418Z,-4.97
2019-01-16T05:21:31.444Z,-4.99
2019-01-16T05:22:39.501Z,-4.99
2019-01-16T05:23:47.544Z,-5.07
2019-01-16T05:24:55.577Z,-4.97
2019-01-16T05:26:03.656Z,-5.06
2019-01-16T05:27:11.686Z,-5.11
2019-01-16T05:28:19.753Z,-5.08
2019-01-16T05:29:27.801Z,-5.10
2019-01-16T05:30:35.835Z,-5.14
2019-01-16T05:31:43.899Z,-5.08
2019-01-16T05:32:51.933Z,-5.18
2019-01-16T05:34:03.281Z,-5.17
2019-01-16T05:35:08.039Z,-5.19
2019-01-16T05:36:16.090Z,-5.17
2019-01-16T05:37:24.155Z,-5.18
2019-01-16T05:38:32.207Z,-5.23
2019-01-16T05:39:40.250Z,-5.23
2019-01-16T05:40:48.440Z,-5.25
2019-01-16T05:41:56.357Z,-5.23
2019-01-16T05:43:04.393Z,-5.35
2019-01-16T05:44:12.437Z,-5.23
2019-01-16T05:45:20.508Z,-5.23
2019-01-16T05:46:28.560Z,-5.33
2019-01-16T05:47:36.620Z,-5.25
2019-01-16T05:48:44.637Z,-5.27
2019-01-16T05:49:52.714Z,-5.29
2019-01-16T05:51:01.989Z,-5.27
2019-01-16T05:52:08.816Z,-5.30
2019-01-16T05:53:16.847Z,-5.35
2019-01-16T05:54:25.330Z,-5.36
2019-01-16T05:55:33.194Z,-5.32
2019-01-16T05:56:41.008Z,-5.30
2019-01-16T05:57:49.088Z,-5.29
2019-01-16T05:58:57.098Z,-5.14
2019-01-16T06:00:05.147Z,-5.18
2019-01-16T06:01:13.195Z,-5.18
2019-01-16T06:02:21.227Z,-5.17
2019-01-16T06:03:29.882Z,-5.23
2019-01-16T06:04:37.814Z,-5.22
2019-01-16T06:05:45.415Z,-5.25
2019-01-16T06:06:53.438Z,-5.26
2019-01-16T06:08:01.506Z,-5.23
2019-01-16T06:09:09.555Z,-5.29
2019-01-16T06:10:18.192Z,-5.19
2019-01-16T06:11:25.686Z,-5.26
2019-01-16T06:12:33.705Z,-5.19
2019-01-16T06:13:41.746Z,-5.18
2019-01-16T06:14:49.791Z,-5.19
2019-01-16T06:15:57.842Z,-5.18
2019-01-16T06:17:05.910Z,-5.25
2019-01-16T06:18:13.949Z,-5.23
2019-01-16T06:19:22.004Z,-5.26
2019-01-16T06:20:30.054Z,-5.14
2019-01-16T06:21:38.109Z,-5.23
2019-01-16T06:22:46.138Z,-5.18
2019-01-16T06:23:54.212Z,-5.23
2019-01-16T06:25:02.255Z,-5.25
2019-01-16T06:26:10.284Z,-5.26
2019-01-16T06:27:18.367Z,-5.23
2019-01-16T06:28:26.377Z,-5.22
2019-01-16T06:29:34.440Z,-5.18
2019-01-16T06:30:42.493Z,-5.23
2019-01-16T06:31:50.536Z,-5.18
2019-01-16T06:32:58.602Z,-5.25
2019-01-16T06:34:06.655Z,-5.27
2019-01-16T06:35:14.693Z,-5.22
2019-01-16T06:36:22.784Z,-5.22
2019-01-16T06:37:30.802Z,-5.25
2019-01-16T06:38:38.832Z,-5.25
2019-01-16T06:39:46.966Z,-5.18
2019-01-16T06:40:54.948Z,-5.25
2019-01-16T06:42:03.002Z,-5.19
2019-01-16T06:43:11.017Z,-5.22
2019-01-16T06:44:19.092Z,-5.14
2019-01-16T06:45:27.187Z,-5.10
2019-01-16T06:46:35.197Z,-5.00
2019-01-16T06:47:43.298Z,-4.93
2019-01-16T06:48:51.287Z,-5.04
2019-01-16T06:50:01.740Z,-4.96
2019-01-16T06:51:07.404Z,-4.92
2019-01-16T06:52:15.477Z,-4.86
2019-01-16T06:53:23.489Z,-4.86
2019-01-16T06:54:31.521Z,-4.89
2019-01-16T06:55:39.587Z,-4.71
2019-01-16T06:56:47.629Z,-4.72
2019-01-16T06:57:55.728Z,-4.69
2019-01-16T06:59:03.792Z,-4.53
2019-01-16T07:00:11.799Z,-4.50
2019-01-16T07:01:19.837Z,-4.49
2019-01-16T07:02:27.885Z,-4.49
2019-01-16T07:03:35.954Z,-4.36
2019-01-16T07:04:44.000Z,-4.32
2019-01-16T07:05:52.044Z,-4.32
2019-01-16T07:07:00.089Z,-4.36
2019-01-16T07:08:08.127Z,-4.22
2019-01-16T07:09:16.163Z,-4.22
2019-01-16T07:10:24.243Z,-4.15
2019-01-16T07:11:32.298Z,-4.15
2019-01-16T07:12:40.326Z,-4.11
2019-01-16T07:13:48.401Z,-3.94
2019-01-16T07:14:56.422Z,-3.97
2019-01-16T07:16:04.485Z,-3.94
2019-01-16T07:17:12.562Z,-3.88
2019-01-16T07:18:20.594Z,-3.88
2019-01-16T07:19:28.654Z,-3.78
2019-01-16T07:20:36.690Z,-3.57
2019-01-16T07:21:44.741Z,-3.59
2019-01-16T07:22:52.804Z,-3.49
2019-01-16T07:24:00.829Z,-3.52
2019-01-16T07:25:08.892Z,-3.42
2019-01-16T07:26:16.954Z,-3.35
2019-01-16T07:27:24.979Z,-3.24
2019-01-16T07:28:33.049Z,-3.21
2019-01-16T07:29:41.107Z,-3.24
2019-01-16T07:30:49.148Z,-3.09
2019-01-16T07:31:57.191Z,-3.05
2019-01-16T07:33:05.229Z,-2.91
2019-01-16T07:34:13.290Z,-2.92
2019-01-16T07:35:21.339Z,-2.92
2019-01-16T07:36:29.415Z,-2.86
2019-01-16T07:37:37.483Z,-2.82
2019-01-16T07:38:45.505Z,-2.84
2019-01-16T07:39:53.576Z,-2.81
2019-01-16T07:41:01.611Z,-2.79
2019-01-16T07:42:09.645Z,-2.84
2019-01-16T07:43:17.696Z,-2.77
2019-01-16T07:44:25.748Z,-2.78
2019-01-16T07:45:33.785Z,-2.79
2019-01-16T07:46:41.875Z,-2.84
2019-01-16T07:47:49.919Z,-2.81
2019-01-16T07:48:57.943Z,-2.74
2019-01-16T07:50:06.015Z,-2.68
2019-01-16T07:51:14.053Z,-2.70
2019-01-16T07:52:22.128Z,-2.74
2019-01-16T07:53:30.180Z,-2.67
2019-01-16T07:54:38.217Z,-2.67
2019-01-16T07:55:46.253Z,-2.68
2019-01-16T07:56:54.339Z,-2.67
2019-01-16T07:58:02.371Z,-2.58
2019-01-16T07:59:10.408Z,-2.66
2019-01-16T08:00:18.473Z,-2.58
2019-01-16T08:01:26.545Z,-2.56
2019-01-16T08:02:34.590Z,-2.56
2019-01-16T08:03:42.617Z,-2.55
2019-01-16T08:04:50.669Z,-2.48
2019-01-16T08:05:58.730Z,-2.46
2019-01-16T08:07:06.781Z,-2.40
2019-01-16T08:08:14.830Z,-2.43
2019-01-16T08:09:22.891Z,-2.40
2019-01-16T08:10:30.942Z,-2.43
2019-01-16T08:11:39.929Z,-2.46
2019-01-16T08:12:47.033Z,-2.42
2019-01-16T08:13:55.096Z,-2.46
2019-01-16T08:15:03.175Z,-2.43
2019-01-16T08:16:11.176Z,-2.45
2019-01-16T08:17:19.239Z,-2.48
2019-01-16T08:18:27.293Z,-2.35
2019-01-16T08:19:35.353Z,-2.43
2019-01-16T08:20:43.404Z,-2.39
2019-01-16T08:21:51.469Z,-2.50
2019-01-16T08:22:59.482Z,-2.48
2019-01-16T08:24:07.559Z,-2.27
2019-01-16T08:25:15.601Z,-2.48
2019-01-16T08:26:23.669Z,-2.46
2019-01-16T08:27:31.708Z,-2.43
2019-01-16T08:28:39.790Z,-2.50
2019-01-16T08:29:47.807Z,-2.48
2019-01-16T08:30:55.864Z,-2.50
2019-01-16T08:32:03.917Z,-2.46
2019-01-16T08:33:11.963Z,-2.53
2019-01-16T08:34:20.020Z,-2.49
2019-01-16T08:35:28.118Z,-2.50
2019-01-16T08:36:36.119Z,-2.55
2019-01-16T08:37:44.158Z,-2.53
2019-01-16T08:38:52.210Z,-2.53
2019-01-16T08:40:00.276Z,-2.53
2019-01-16T08:41:08.329Z,-2.50
2019-01-16T08:42:16.389Z,-2.40
2019-01-16T08:43:24.433Z,-2.37
2019-01-16T08:44:32.463Z,-2.37
2019-01-16T08:45:40.510Z,-2.42
2019-01-16T08:46:48.640Z,-2.32
2019-01-16T08:47:56.642Z,-2.26
2019-01-16T08:49:04.747Z,-2.21
2019-01-16T08:50:12.741Z,-2.21
2019-01-16T08:51:20.793Z,-2.18
2019-01-16T08:52:28.934Z,-2.20
2019-01-16T08:53:36.918Z,-2.12
2019-01-16T08:54:44.943Z,-2.15
2019-01-16T08:55:53.005Z,-2.09
2019-01-16T08:57:01.047Z,-1.94
2019-01-16T08:58:09.106Z,-1.88
2019-01-16T08:59:17.186Z,-1.79
2019-01-16T09:00:25.204Z,-1.80
2019-01-16T09:01:33.281Z,-1.79
2019-01-16T09:02:41.304Z,-1.76
2019-01-16T09:03:49.345Z,-1.69
2019-01-16T09:04:57.422Z,-1.66
2019-01-16T09:06:05.471Z,-1.55
2019-01-16T09:07:13.526Z,-1.46
2019-01-16T09:08:21.578Z,-1.45
2019-01-16T09:09:29.628Z,-1.45
2019-01-16T09:10:37.696Z,-1.41
2019-01-16T09:11:45.843Z,-1.43
2019-01-16T09:12:53.771Z,-1.37
2019-01-16T09:14:01.844Z,-1.38
2019-01-16T09:15:09.905Z,-1.45
2019-01-16T09:16:17.949Z,-1.45
2019-01-16T09:17:26.011Z,-1.55
2019-01-16T09:18:34.043Z,-1.52
2019-01-16T09:19:42.102Z,-1.49
2019-01-16T09:20:50.155Z,-1.46
2019-01-16T09:21:58.226Z,-1.55
2019-01-16T09:23:06.280Z,-1.45
2019-01-16T09:24:14.313Z,-1.49
2019-01-16T09:25:22.380Z,-1.43
2019-01-16T09:26:30.426Z,-1.37
2019-01-16T09:27:38.462Z,-1.37
2019-01-16T09:28:46.534Z,-1.23
2019-01-16T09:29:54.556Z,-1.23
2019-01-16T09:31:02.622Z,-1.12
2019-01-16T09:32:10.668Z,-1.05
2019-01-16T09:33:18.734Z,-1.01
2019-01-16T09:34:26.772Z,-0.92
2019-01-16T09:35:34.850Z,-0.91
2019-01-16T09:36:42.892Z,-0.83
2019-01-16T09:37:50.922Z,-0.75
2019-01-16T09:38:59.003Z,-0.67
2019-01-16T09:40:07.062Z,-0.69
2019-01-16T09:41:15.091Z,-0.55
2019-01-16T09:42:23.160Z,-0.49
2019-01-16T09:43:31.180Z,-0.47
2019-01-16T09:44:39.259Z,-0.44
2019-01-16T09:45:47.331Z,-0.36
2019-01-16T09:46:55.425Z,-0.26
2019-01-16T09:48:03.421Z,-0.21
2019-01-16T09:49:11.511Z,-0.23
2019-01-16T09:50:19.531Z,-0.21
2019-01-16T09:51:27.587Z,-0.10
2019-01-16T09:52:35.618Z,-0.10
2019-01-16T09:53:43.680Z,0.03
2019-01-16T09:54:51.744Z,0.15
2019-01-16T09:55:59.789Z,0.18
2019-01-16T09:57:07.836Z,0.24
2019-01-16T09:58:15.880Z,0.38
2019-01-16T09:59:23.955Z,0.38
2019-01-16T10:00:32.012Z,0.51
2019-01-16T10:01:40.050Z,0.65
2019-01-16T10:02:48.112Z,0.73
2019-01-16T10:03:56.163Z,0.80
2019-01-16T10:05:04.219Z,0.91
2019-01-16T10:06:12.278Z,0.97
2019-01-16T10:07:20.324Z,1.12
2019-01-16T10:08:28.386Z,1.09
2019-01-16T10:09:36.435Z,1.12
2019-01-16T10:10:44.503Z,1.14
2019-01-16T10:11:52.532Z,1.24
2019-01-16T10:13:00.572Z,1.26
2019-01-16T10:14:08.649Z,1.23
2019-01-16T10:15:16.701Z,1.23
2019-01-16T10:16:24.760Z,1.33
2019-01-16T10:17:32.818Z,1.42
2019-01-16T10:18:40.849Z,1.41
2019-01-16T10:19:48.916Z,1.48
2019-01-16T10:20:56.960Z,1.62
2019-01-16T10:22:05.042Z,1.51
2019-01-16T10:23:13.071Z,1.54
2019-01-16T10:24:21.103Z,1.55
2019-01-16T10:25:29.179Z,1.66
2019-01-16T10:26:37.272Z,1.63
2019-01-16T10:27:45.284Z,1.65
2019-01-16T10:28:53.331Z,1.69
2019-01-16T10:30:01.409Z,1.68
2019-01-16T10:31:09.500Z,1.79
2019-01-16T10:32:17.527Z,1.80
2019-01-16T10:33:25.550Z,1.88
2019-01-16T10:34:33.627Z,2.02
2019-01-16T10:35:41.705Z,2.06
2019-01-16T10:36:49.731Z,1.90
2019-01-16T10:37:57.794Z,1.95
2019-01-16T10:39:05.836Z,2.05
2019-01-16T10:40:13.900Z,1.99
2019-01-16T10:41:21.965Z,2.02
2019-01-16T10:42:30.009Z,2.05
2019-01-16T10:43:38.066Z,2.00
2019-01-16T10:44:46.130Z,2.05
2019-01-16T10:45:54.170Z,1.99
2019-01-16T10:47:02.238Z,2.05
2019-01-16T10:48:10.293Z,2.09
2019-01-16T10:49:18.398Z,2.05
2019-01-16T10:50:26.395Z,2.06
2019-01-16T10:51:34.442Z,2.09
2019-01-16T10:52:42.514Z,2.03
2019-01-16T10:53:50.580Z,2.14
2019-01-16T10:54:58.626Z,2.03
2019-01-16T10:56:06.671Z,2.02
2019-01-16T10:57:14.713Z,2.02
2019-01-16T10:58:22.790Z,2.17
2019-01-16T10:59:30.810Z,2.23
2019-01-16T11:00:38.880Z,2.34
2019-01-16T11:01:46.958Z,2.35
2019-01-16T11:02:55.019Z,2.46
2019-01-16T11:04:03.068Z,2.61
2019-01-16T11:05:11.124Z,2.75
2019-01-16T11:06:19.205Z,2.75
2019-01-16T11:07:27.234Z,2.82
2019-01-16T11:08:35.404Z,2.92
2019-01-16T11:09:43.340Z,2.92
2019-01-16T11:10:51.397Z,3.06
2019-01-16T11:11:59.446Z,3.14
2019-01-16T11:13:07.524Z,3.05
2019-01-16T11:14:15.562Z,3.15
2019-01-16T11:15:23.616Z,3.10
2019-01-16T11:16:31.669Z,3.06
2019-01-16T11:17:39.793Z,3.13
2019-01-16T11:18:47.798Z,3.15
2019-01-16T11:19:55.894Z,3.10
2019-01-16T11:21:10.780Z,3.15
2019-01-16T11:22:11.942Z,3.23
2019-01-16T11:23:20.014Z,3.36
2019-01-16T11:24:28.080Z,3.39
2019-01-16T11:25:36.130Z,3.51
2019-01-16T11:26:44.203Z,3.58
2019-01-16T11:27:52.250Z,3.65
2019-01-16T11:29:00.296Z,3.70
2019-01-16T11:30:08.354Z,3.76
2019-01-16T11:31:16.414Z,3.79
2019-01-16T11:32:24.483Z,3.88
2019-01-16T11:33:32.550Z,3.86
2019-01-16T11:34:40.579Z,3.78
2019-01-16T11:35:48.658Z,3.75
2019-01-16T11:36:56.698Z,3.73
2019-01-16T11:38:04.737Z,3.79
2019-01-16T11:39:12.828Z,3.87
2019-01-16T11:40:20.836Z,3.88
2019-01-16T11:41:28.918Z,4.02
2019-01-16T11:42:36.974Z,4.02
2019-01-16T11:43:45.061Z,4.11
2019-01-16T11:44:53.093Z,4.11
2019-01-16T11:46:01.141Z,4.09
2019-01-16T11:47:09.217Z,4.22
2019-01-16T11:48:17.300Z,4.16
2019-01-16T11:49:25.328Z,4.23
2019-01-16T11:50:33.389Z,4.30
2019-01-16T11:51:41.429Z,4.34
2019-01-16T11:52:49.490Z,4.42
2019-01-16T11:53:57.572Z,4.41
2019-01-16T11:55:05.604Z,4.58
2019-01-16T11:56:13.681Z,4.59
2019-01-16T11:57:21.887Z,4.73
2019-01-16T11:58:29.781Z,4.80
2019-01-16T11:59:37.835Z,4.80
2019-01-16T12:00:45.896Z,4.91
2019-01-16T12:01:53.966Z,4.89
2019-01-16T12:03:02.036Z,4.84
2019-01-16T12:04:10.068Z,4.92
2019-01-16T12:05:18.137Z,4.89
2019-01-16T12:06:26.198Z,4.99
2019-01-16T12:07:34.254Z,5.03
2019-01-16T12:08:42.317Z,5.09
2019-01-16T12:09:50.348Z,5.03
2019-01-16T12:10:58.412Z,5.04
2019-01-16T12:12:06.489Z,5.02
2019-01-16T12:13:14.526Z,5.02
2019-01-16T12:14:22.636Z,4.82
2019-01-16T12:15:30.635Z,4.80
2019-01-16T12:16:38.734Z,4.86
2019-01-16T12:17:46.757Z,4.80
2019-01-16T12:18:54.825Z,4.77
2019-01-16T12:20:02.887Z,4.78
2019-01-16T12:21:10.934Z,4.67
2019-01-16T12:22:19.018Z,4.80
2019-01-16T12:23:27.079Z,4.73
2019-01-16T12:24:35.104Z,4.78
2019-01-16T12:25:43.179Z,4.85
2019-01-16T12:26:51.227Z,4.77
2019-01-16T12:27:59.287Z,4.78
2019-01-16T12:29:07.325Z,4.78
2019-01-16T12:30:15.397Z,4.82
2019-01-16T12:31:23.458Z,4.82
2019-01-16T12:32:31.524Z,4.91
2019-01-16T12:33:39.587Z,4.84
2019-01-16T12:34:47.631Z,4.82
2019-01-16T12:35:55.713Z,4.67
2019-01-16T12:37:03.742Z,4.70
2019-01-16T12:38:11.851Z,4.78
2019-01-16T12:39:19.873Z,4.78
2019-01-16T12:40:27.918Z,4.82
2019-01-16T12:41:35.963Z,4.78
2019-01-16T12:42:44.033Z,4.82
2019-01-16T12:43:52.085Z,4.84
2019-01-16T12:45:00.245Z,4.80
2019-01-16T12:46:08.175Z,4.72
2019-01-16T12:47:16.267Z,4.82
2019-01-16T12:48:24.312Z,4.89
2019-01-16T12:49:32.376Z,4.84
2019-01-16T12:50:40.420Z,4.80
2019-01-16T12:51:48.483Z,4.84
2019-01-16T12:52:56.537Z,4.91
2019-01-16T12:54:04.595Z,4.85
2019-01-16T12:55:12.669Z,4.84
2019-01-16T12:56:20.721Z,4.80
2019-01-16T12:57:28.759Z,4.77
2019-01-16T12:58:36.807Z,4.75
2019-01-16T12:59:44.871Z,4.65
2019-01-16T13:00:52.936Z,4.75
2019-01-16T13:02:00.987Z,4.65
2019-01-16T13:03:09.058Z,4.69
2019-01-16T13:04:17.107Z,4.58
2019-01-16T13:05:25.147Z,4.65
2019-01-16T13:06:33.219Z,4.66
2019-01-16T13:07:41.295Z,4.55
2019-01-16T13:08:49.325Z,4.60
2019-01-16T13:09:57.399Z,4.54
2019-01-16T13:11:05.438Z,4.48
2019-01-16T13:12:13.501Z,4.47
2019-01-16T13:13:21.570Z,4.44
2019-01-16T13:14:29.979Z,4.48
2019-01-16T13:15:37.741Z,4.40
2019-01-16T13:16:45.728Z,4.33
2019-01-16T13:17:53.785Z,4.34
2019-01-16T13:19:01.860Z,4.33
2019-01-16T13:20:09.901Z,4.36
2019-01-16T13:21:18.564Z,4.23
2019-01-16T13:22:26.030Z,4.26
2019-01-16T13:23:34.062Z,4.20
2019-01-16T13:24:42.140Z,4.23
2019-01-16T13:25:50.180Z,4.20
2019-01-16T13:26:58.234Z,4.15
2019-01-16T13:28:06.284Z,4.14
2019-01-16T13:29:14.360Z,4.05
2019-01-16T13:30:22.411Z,4.02
2019-01-16T13:31:30.444Z,4.09
2019-01-16T13:32:38.512Z,4.08
2019-01-16T13:33:46.564Z,3.94
2019-01-16T13:34:54.630Z,3.93
2019-01-16T13:36:02.676Z,3.98
2019-01-16T13:37:10.740Z,3.96
2019-01-16T13:38:18.781Z,4.00
2019-01-16T13:39:26.846Z,4.00
2019-01-16T13:40:34.896Z,3.98
2019-01-16T13:41:42.964Z,4.00
2019-01-16T13:42:50.995Z,3.96
2019-01-16T13:43:59.081Z,4.04
2019-01-16T13:45:07.132Z,4.00
2019-01-16T13:46:15.174Z,4.04
2019-01-16T13:47:23.240Z,3.88
2019-01-16T13:48:31.313Z,3.96
2019-01-16T13:49:39.355Z,3.88
2019-01-16T13:50:47.414Z,3.88
2019-01-16T13:51:55.485Z,3.96
2019-01-16T13:53:03.510Z,3.91
2019-01-16T13:54:11.574Z,4.00
2019-01-16T13:55:19.633Z,4.04
2019-01-16T13:56:27.693Z,4.05
2019-01-16T13:57:35.749Z,3.96
2019-01-16T13:58:43.788Z,4.00
2019-01-16T13:59:51.870Z,3.88
2019-01-16T14:00:59.916Z,3.90
2019-01-16T14:02:07.973Z,3.91
2019-01-16T14:03:16.045Z,3.93
2019-01-16T14:04:24.084Z,3.91
2019-01-16T14:05:32.141Z,3.91
2019-01-16T14:06:40.178Z,3.94
2019-01-16T14:07:49.351Z,3.88
2019-01-16T14:08:56.292Z,3.90
2019-01-16T14:10:04.335Z,3.96
2019-01-16T14:11:12.397Z,3.93
2019-01-16T14:12:20.444Z,3.88
2019-01-16T14:13:28.528Z,3.94
2019-01-16T14:14:36.587Z,3.90
2019-01-16T14:15:44.639Z,3.93
2019-01-16T14:16:52.680Z,3.90
2019-01-16T14:18:00.733Z,3.93
2019-01-16T14:19:08.810Z,3.88
2019-01-16T14:20:16.842Z,3.87
2019-01-16T14:21:24.914Z,3.87
2019-01-16T14:22:32.977Z,3.91
2019-01-16T14:23:41.021Z,3.86
2019-01-16T14:24:49.075Z,3.93
2019-01-16T14:25:57.182Z,3.88
2019-01-16T14:27:05.197Z,3.98
2019-01-16T14:28:13.236Z,3.88
2019-01-16T14:29:21.280Z,3.90
2019-01-16T14:30:29.359Z,3.91
2019-01-16T14:31:37.419Z,3.90
2019-01-16T14:32:45.449Z,3.94
2019-01-16T14:33:53.571Z,3.93
2019-01-16T14:35:01.595Z,3.84
2019-01-16T14:36:09.639Z,3.78
2019-01-16T14:37:17.715Z,3.90
2019-01-16T14:38:25.729Z,3.83
2019-01-16T14:39:33.808Z,3.78
2019-01-16T14:40:41.864Z,3.79
2019-01-16T14:41:49.924Z,3.87
2019-01-16T14:42:57.973Z,3.83
2019-01-16T14:44:06.033Z,3.87
2019-01-16T14:45:14.079Z,3.76
2019-01-16T14:46:22.143Z,3.76
2019-01-16T14:47:30.195Z,3.86
2019-01-16T14:48:38.248Z,3.80
2019-01-16T14:49:46.316Z,3.79
2019-01-16T14:50:54.366Z,3.79